createdAt,value
2018-04-15T00:00:42.182Z,169.17
2018-04-15T00:03:08.432Z,164.97
2018-04-15T00:05:34.537Z,159.37
2018-04-15T00:08:00.635Z,170.47
2018-04-15T00:10:27.658Z,171.10
2018-04-15T00:12:53.756Z,174.80
2018-04-15T00:15:19.841Z,166.43
2018-04-15T00:17:46.737Z,176.90
2018-04-15T00:20:12.907Z,184.67
2018-04-15T00:22:38.998Z,200.67
2018-04-15T00:25:05.065Z,206.23
2018-04-15T00:27:31.182Z,226.90
2018-04-15T00:29:57.494Z,253.60
2018-04-15T00:32:24.522Z,239.67
2018-04-15T00:34:51.011Z,239.30
2018-04-15T00:37:17.538Z,216.03
2018-04-15T00:39:44.111Z,209.20
2018-04-15T00:42:10.305Z,201.10
2018-04-15T00:44:36.399Z,199.20
2018-04-15T00:47:02.538Z,179.87
2018-04-15T00:49:28.694Z,177.37
2018-04-15T00:51:54.849Z,176.53
2018-04-15T00:54:20.957Z,164.60
2018-04-15T00:56:47.080Z,168.80
2018-04-15T00:59:13.215Z,196.97
2018-04-15T01:01:39.367Z,222.47
2018-04-15T01:04:05.827Z,222.00
2018-04-15T01:06:31.948Z,255.37
2018-04-15T01:08:58.050Z,276.40
2018-04-15T01:11:24.141Z,284.23
2018-04-15T01:13:50.205Z,290.00
2018-04-15T01:16:17.168Z,286.47
2018-04-15T01:18:43.271Z,272.33
2018-04-15T01:21:09.393Z,268.27
2018-04-15T01:23:35.469Z,270.10
2018-04-15T01:26:01.566Z,280.33
2018-04-15T01:28:27.744Z,265.27
2018-04-15T01:30:53.813Z,248.53
2018-04-15T01:33:19.902Z,247.27
2018-04-15T01:35:45.985Z,247.53
2018-04-15T01:38:12.063Z,255.27
2018-04-15T01:40:38.160Z,254.70
2018-04-15T01:43:04.227Z,245.73
2018-04-15T01:45:30.307Z,251.87
2018-04-15T01:47:56.524Z,269.70
2018-04-15T01:50:22.592Z,237.17
2018-04-15T01:52:48.654Z,272.70
2018-04-15T01:55:15.763Z,284.50
2018-04-15T01:57:41.844Z,276.73
2018-04-15T02:00:07.946Z,242.67
2018-04-15T02:02:34.035Z,237.90
2018-04-15T02:05:00.856Z,225.67
2018-04-15T02:07:26.931Z,237.93
2018-04-15T02:09:53.835Z,245.70
2018-04-15T02:12:20.172Z,240.03
2018-04-15T02:14:46.269Z,236.27
2018-04-15T02:17:13.174Z,230.60
2018-04-15T02:19:39.287Z,222.80
2018-04-15T02:22:05.415Z,247.70
2018-04-15T02:24:31.611Z,243.90
2018-04-15T02:26:58.296Z,274.37
2018-04-15T02:29:24.432Z,265.20
2018-04-15T02:31:51.326Z,284.13
2018-04-15T02:34:17.450Z,296.47
2018-04-15T02:36:43.510Z,275.03
2018-04-15T02:39:09.640Z,257.30
2018-04-15T02:41:35.735Z,259.30
2018-04-15T02:44:02.608Z,227.17
2018-04-15T02:46:28.699Z,162.60
2018-04-15T02:48:54.783Z,150.80
2018-04-15T02:51:20.867Z,124.13
2018-04-15T02:53:46.958Z,128.47
2018-04-15T02:56:13.092Z,108.43
2018-04-15T02:58:39.160Z,115.10
2018-04-15T03:01:05.282Z,111.53
2018-04-15T03:03:31.354Z,123.40
2018-04-15T03:05:57.557Z,101.73
2018-04-15T03:08:23.676Z,120.97
2018-04-15T03:10:50.154Z,106.33
2018-04-15T03:13:16.251Z,100.53
2018-04-15T03:15:42.444Z,98.70
2018-04-15T03:18:08.543Z,98.37
2018-04-15T03:20:34.661Z,98.13
2018-04-15T03:23:01.526Z,102.03
2018-04-15T03:25:28.343Z,96.77
2018-04-15T03:27:54.446Z,108.27
2018-04-15T03:30:20.555Z,95.40
2018-04-15T03:32:47.430Z,95.20
2018-04-15T03:35:13.549Z,106.27
2018-04-15T03:40:34.112Z,103.57
2018-04-15T03:43:00.270Z,102.93
2018-04-15T03:45:26.390Z,105.60
2018-04-15T03:47:52.480Z,100.90
2018-04-15T03:50:18.679Z,100.57
2018-04-15T03:52:44.767Z,99.53
2018-04-15T03:55:11.582Z,108.00
2018-04-15T03:57:37.696Z,98.47
2018-04-15T04:00:03.772Z,109.80
2018-04-15T04:02:29.906Z,96.70
2018-04-15T04:04:56.651Z,100.83
2018-04-15T04:07:22.755Z,100.70
2018-04-15T04:09:48.838Z,109.50
2018-04-15T04:12:14.950Z,98.73
2018-04-15T04:14:41.333Z,104.47
2018-04-15T04:17:07.408Z,111.63
2018-04-15T04:19:45.921Z,99.63
2018-04-15T04:22:24.295Z,102.93
2018-04-15T04:24:57.543Z,98.77
2018-04-15T04:27:24.424Z,105.17
2018-04-15T04:29:50.493Z,106.17
2018-04-15T04:32:17.656Z,98.00
2018-04-15T04:34:43.723Z,105.07
2018-04-15T04:37:09.802Z,91.87
2018-04-15T04:39:35.963Z,93.27
2018-04-15T04:42:02.067Z,85.20
2018-04-15T04:44:28.227Z,88.57
2018-04-15T04:46:54.375Z,94.13
2018-04-15T04:49:20.495Z,95.77
2018-04-15T04:51:46.751Z,96.07
2018-04-15T04:54:12.894Z,99.07
2018-04-15T04:56:39.020Z,100.10
2018-04-15T04:59:05.154Z,93.10
2018-04-15T05:01:31.272Z,93.30
2018-04-15T05:03:57.399Z,92.80
2018-04-15T05:06:24.280Z,91.50
2018-04-15T05:08:50.367Z,84.07
2018-04-15T05:11:16.462Z,83.13
2018-04-15T05:13:42.591Z,81.33
2018-04-15T05:16:08.695Z,80.33
2018-04-15T05:18:34.858Z,77.57
2018-04-15T05:21:01.011Z,75.53
2018-04-15T05:23:27.205Z,75.50
2018-04-15T05:25:53.366Z,87.13
2018-04-15T05:28:20.258Z,74.00
2018-04-15T05:30:46.470Z,77.23
2018-04-15T05:33:12.566Z,79.20
2018-04-15T05:35:38.679Z,72.77
2018-04-15T05:38:04.763Z,74.27
2018-04-15T05:40:31.630Z,79.50
2018-04-15T05:42:58.514Z,69.63
2018-04-15T05:45:24.668Z,77.93
2018-04-15T05:47:50.777Z,72.17
2018-04-15T05:50:16.938Z,65.30
2018-04-15T05:52:43.084Z,65.60
2018-04-15T05:55:09.207Z,68.43
2018-04-15T05:57:35.286Z,66.13
2018-04-15T06:00:01.392Z,72.83
2018-04-15T06:02:27.577Z,72.03
2018-04-15T06:04:53.763Z,68.03
2018-04-15T06:07:19.896Z,66.80
2018-04-15T06:09:46.021Z,65.97
2018-04-15T06:12:12.176Z,72.60
2018-04-15T06:14:38.307Z,68.93
2018-04-15T06:17:04.428Z,66.30
2018-04-15T06:19:31.253Z,61.57
2018-04-15T06:21:57.473Z,54.90
2018-04-15T06:24:23.538Z,57.13
2018-04-15T06:26:49.740Z,60.67
2018-04-15T06:29:15.855Z,63.50
2018-04-15T06:31:41.959Z,52.00
2018-04-15T06:34:08.799Z,64.70
2018-04-15T06:36:34.871Z,59.00
2018-04-15T06:39:01.818Z,61.00
2018-04-15T06:41:28.648Z,54.67
2018-04-15T06:43:54.734Z,56.53
2018-04-15T06:46:20.868Z,60.30
2018-04-15T06:48:47.019Z,53.83
2018-04-15T06:51:13.140Z,52.10
2018-04-15T06:53:39.252Z,47.90
2018-04-15T06:56:05.423Z,49.00
2018-04-15T06:58:31.503Z,47.70
2018-04-15T07:00:57.646Z,47.70
2018-04-15T07:03:23.757Z,46.53
2018-04-15T07:05:51.014Z,48.90
2018-04-15T07:08:17.227Z,46.43
2018-04-15T07:10:43.400Z,43.27
2018-04-15T07:13:09.507Z,44.53
2018-04-15T07:15:35.615Z,42.67
2018-04-15T07:18:02.775Z,39.53
2018-04-15T07:20:28.955Z,33.90
2018-04-15T07:22:55.083Z,35.00
2018-04-15T07:25:21.924Z,37.53
2018-04-15T07:27:48.841Z,34.83
2018-04-15T07:30:14.973Z,34.40
2018-04-15T07:32:41.172Z,30.40
2018-04-15T07:35:08.061Z,34.80
2018-04-15T07:37:34.219Z,26.00
2018-04-15T07:40:00.352Z,30.37
2018-04-15T07:42:26.543Z,29.40
2018-04-15T07:44:53.139Z,37.80
2018-04-15T07:47:19.251Z,30.30
2018-04-15T07:49:45.356Z,26.50
2018-04-15T07:52:12.216Z,24.00
2018-04-15T07:54:39.095Z,24.63
2018-04-15T07:57:05.242Z,24.67
2018-04-15T07:59:31.352Z,25.30
2018-04-15T08:01:58.218Z,24.27
2018-04-15T08:04:24.403Z,25.60
2018-04-15T08:06:50.563Z,23.90
2018-04-15T08:09:16.767Z,23.97
2018-04-15T08:11:42.856Z,24.50
2018-04-15T08:14:09.767Z,23.10
2018-04-15T08:16:35.904Z,23.93
2018-04-15T08:19:02.036Z,25.83
2018-04-15T08:21:28.211Z,22.63
2018-04-15T08:23:54.412Z,23.00
2018-04-15T08:26:20.511Z,22.93
2018-04-15T08:28:47.416Z,19.30
2018-04-15T08:31:14.511Z,19.10
2018-04-15T08:33:41.047Z,19.83
2018-04-15T08:36:07.327Z,21.60
2018-04-15T08:38:33.419Z,31.60
2018-04-15T08:40:59.565Z,19.40
2018-04-15T08:43:25.671Z,15.47
2018-04-15T08:45:51.823Z,16.70
2018-04-15T08:48:17.938Z,22.37
2018-04-15T08:50:44.063Z,19.37
2018-04-15T08:53:10.178Z,29.47
2018-04-15T08:55:37.083Z,13.60
2018-04-15T08:58:04.995Z,15.87
2018-04-15T09:00:32.997Z,14.73
2018-04-15T09:03:00.835Z,16.13
2018-04-15T09:05:28.737Z,12.30
2018-04-15T09:07:56.789Z,12.20
2018-04-15T09:10:24.799Z,11.77
2018-04-15T09:12:52.806Z,13.57
2018-04-15T09:15:20.726Z,9.27
2018-04-15T09:17:48.648Z,9.67
2018-04-15T09:20:16.603Z,10.47
2018-04-15T09:22:44.507Z,16.83
2018-04-15T09:25:12.462Z,11.17
2018-04-15T09:27:40.338Z,10.80
2018-04-15T09:30:08.289Z,9.53
2018-04-15T09:32:36.185Z,12.50
2018-04-15T09:35:04.149Z,11.60
2018-04-15T09:37:32.066Z,9.10
2018-04-15T09:39:59.998Z,10.03
2018-04-15T09:42:27.969Z,7.57
2018-04-15T09:44:56.907Z,11.20
2018-04-15T09:47:24.805Z,7.80
2018-04-15T09:49:52.711Z,10.33
2018-04-15T09:52:20.676Z,10.80
2018-04-15T09:54:48.527Z,8.07
2018-04-15T09:57:16.434Z,10.53
2018-04-15T09:59:44.279Z,7.97
2018-04-15T10:02:12.115Z,10.60
2018-04-15T10:04:40.079Z,8.27
2018-04-15T10:07:07.927Z,8.10
2018-04-15T10:09:35.803Z,9.30
2018-04-15T10:12:03.725Z,8.67
2018-04-15T10:14:31.591Z,8.80
2018-04-15T10:17:00.242Z,14.27
2018-04-15T10:19:29.120Z,9.43
2018-04-15T10:21:57.059Z,8.83
2018-04-15T10:24:24.947Z,8.90
2018-04-15T10:26:52.851Z,7.53
2018-04-15T10:29:20.816Z,7.23
2018-04-15T10:31:48.670Z,7.90
2018-04-15T10:34:16.580Z,6.60
2018-04-15T10:36:44.430Z,6.20
2018-04-15T10:39:12.315Z,7.80
2018-04-15T10:41:40.223Z,7.43
2018-04-15T10:44:08.193Z,8.57
2018-04-15T10:46:36.051Z,8.03
2018-04-15T10:49:03.950Z,5.43
2018-04-15T10:51:31.866Z,23.90
2018-04-15T10:53:59.719Z,7.50
2018-04-15T10:56:32.793Z,5.07
2018-04-15T10:59:00.776Z,9.33
2018-04-15T11:01:28.610Z,6.37
2018-04-15T11:03:56.482Z,6.20
2018-04-15T11:06:24.314Z,6.97
2018-04-15T11:08:52.182Z,5.90
2018-04-15T11:11:20.101Z,7.40
2018-04-15T11:13:47.962Z,5.20
2018-04-15T11:16:15.804Z,4.50
2018-04-15T11:18:43.695Z,4.37
2018-04-15T11:21:11.538Z,4.27
2018-04-15T11:23:39.434Z,5.23
2018-04-15T11:26:07.374Z,3.60
2018-04-15T11:28:35.222Z,5.77
2018-04-15T11:31:03.070Z,5.43
2018-04-15T11:33:30.942Z,3.70
2018-04-15T11:35:58.774Z,4.40
2018-04-15T11:38:26.647Z,4.63
2018-04-15T11:40:54.534Z,6.20
2018-04-15T11:43:22.663Z,4.87
2018-04-15T11:45:50.580Z,4.87
2018-04-15T11:48:18.423Z,7.73
2018-04-15T11:50:46.290Z,4.37
2018-04-15T11:53:14.142Z,3.93
2018-04-15T11:55:41.999Z,3.13
2018-04-15T11:58:10.687Z,4.00
2018-04-15T12:00:38.594Z,7.60
2018-04-15T12:03:07.163Z,6.20
2018-04-15T12:05:35.165Z,8.33
2018-04-15T12:08:03.019Z,16.33
2018-04-15T12:10:45.907Z,6.83
2018-04-15T12:13:13.880Z,3.20
2018-04-15T12:15:42.719Z,6.00
2018-04-15T12:18:10.681Z,4.27
2018-04-15T12:20:38.659Z,3.87
2018-04-15T12:23:06.535Z,4.47
2018-04-15T12:25:34.470Z,3.10
2018-04-15T12:28:02.390Z,4.60
2018-04-15T12:30:30.356Z,3.87
2018-04-15T12:32:58.266Z,3.40
2018-04-15T12:35:26.138Z,2.90
2018-04-15T12:37:54.106Z,4.30
2018-04-15T12:40:21.946Z,4.20
2018-04-15T12:42:49.936Z,4.20
2018-04-15T12:45:17.825Z,2.40
2018-04-15T12:47:45.670Z,2.10
2018-04-15T12:50:13.600Z,2.07
2018-04-15T12:52:41.471Z,3.37
2018-04-15T12:55:09.351Z,2.57
2018-04-15T12:57:37.257Z,3.73
2018-04-15T13:00:05.101Z,4.80
2018-04-15T13:02:32.944Z,8.50
2018-04-15T13:05:03.036Z,3.30
2018-04-15T13:07:30.867Z,3.50
2018-04-15T13:09:58.720Z,4.40
2018-04-15T13:12:26.656Z,3.83
2018-04-15T13:14:54.645Z,6.93
2018-04-15T13:17:22.502Z,6.83
2018-04-15T13:19:50.370Z,10.57
2018-04-15T13:22:18.208Z,7.73
2018-04-15T13:24:46.084Z,5.43
2018-04-15T13:27:13.910Z,9.33
2018-04-15T13:29:41.756Z,3.93
2018-04-15T13:32:09.612Z,6.93
2018-04-15T13:34:37.956Z,6.27
2018-04-15T13:37:05.992Z,5.50
2018-04-15T13:39:33.890Z,4.77
2018-04-15T13:42:01.738Z,2.10
2018-04-15T13:44:29.722Z,4.97
2018-04-15T13:46:57.630Z,3.40
2018-04-15T13:49:25.495Z,4.97
2018-04-15T13:51:53.355Z,3.50
2018-04-15T13:54:21.273Z,5.20
2018-04-15T13:56:49.120Z,7.63
2018-04-15T13:59:17.038Z,9.47
2018-04-15T14:01:45.068Z,4.20
2018-04-15T14:04:12.929Z,4.70
2018-04-15T14:06:41.923Z,5.47
2018-04-15T14:09:09.777Z,6.17
2018-04-15T14:11:37.670Z,6.50
2018-04-15T14:14:05.536Z,4.13
2018-04-15T14:16:33.378Z,5.33
2018-04-15T14:19:01.252Z,4.70
2018-04-15T14:21:29.135Z,3.83
2018-04-15T14:23:57.472Z,3.33
2018-04-15T14:26:25.648Z,6.50
2018-04-15T14:28:53.733Z,6.73
2018-04-15T14:31:21.606Z,3.00
2018-04-15T14:33:49.478Z,4.90
2018-04-15T14:36:17.359Z,3.13
2018-04-15T14:38:45.224Z,3.97
2018-04-15T14:41:13.135Z,4.00
2018-04-15T14:43:41.050Z,3.23
2018-04-15T14:46:08.907Z,7.20
2018-04-15T14:48:36.822Z,6.07
2018-04-15T14:51:04.651Z,5.17
2018-04-15T14:53:32.546Z,7.60
2018-04-15T14:56:00.431Z,4.10
2018-04-15T14:58:28.279Z,5.97
2018-04-15T15:00:56.193Z,4.40
2018-04-15T15:03:24.042Z,5.63
2018-04-15T15:05:51.906Z,4.30
2018-04-15T15:08:19.799Z,6.23
2018-04-15T15:10:47.658Z,5.23
2018-04-15T15:13:15.552Z,9.60
2018-04-15T15:15:42.760Z,5.33
2018-04-15T15:18:08.913Z,4.67
2018-04-15T15:20:35.044Z,12.03
2018-04-15T15:23:01.147Z,9.47
2018-04-15T15:25:27.999Z,15.90
2018-04-15T15:27:54.872Z,10.63
2018-04-15T15:30:20.951Z,7.30
2018-04-15T15:32:47.104Z,5.43
2018-04-15T15:35:13.209Z,10.63
2018-04-15T15:37:39.321Z,4.83
2018-04-15T15:40:05.444Z,3.33
2018-04-15T15:42:31.623Z,8.43
2018-04-15T15:44:57.748Z,8.87
2018-04-15T15:47:23.898Z,5.47
2018-04-15T15:49:50.028Z,5.67
2018-04-15T15:52:16.153Z,7.20
2018-04-15T15:54:42.266Z,5.37
2018-04-15T15:57:09.095Z,10.67
2018-04-15T15:59:35.252Z,7.73
2018-04-15T16:02:01.407Z,5.30
2018-04-15T16:04:28.245Z,7.40
2018-04-15T16:06:54.342Z,10.30
2018-04-15T16:09:21.454Z,3.77
2018-04-15T16:11:48.324Z,5.20
2018-04-15T16:14:14.419Z,6.70
2018-04-15T16:16:40.527Z,5.10
2018-04-15T16:19:06.628Z,7.10
2018-04-15T16:21:33.468Z,4.80
2018-04-15T16:23:59.591Z,7.13
2018-04-15T16:26:25.692Z,12.67
2018-04-15T16:28:51.784Z,12.87
2018-04-15T16:31:17.904Z,6.30
2018-04-15T16:33:43.996Z,5.33
2018-04-15T16:36:10.102Z,11.60
2018-04-15T16:38:36.985Z,8.73
2018-04-15T16:41:03.123Z,11.20
2018-04-15T16:43:29.323Z,9.57
2018-04-15T16:45:55.407Z,12.33
2018-04-15T16:48:21.540Z,5.00
2018-04-15T16:50:47.679Z,7.97
2018-04-15T16:53:13.747Z,10.97
2018-04-15T16:55:39.958Z,8.13
2018-04-15T16:58:06.067Z,8.00
2018-04-15T17:00:32.142Z,10.63
2018-04-15T17:02:58.214Z,8.80
2018-04-15T17:05:25.765Z,13.33
2018-04-15T17:07:51.892Z,10.73
2018-04-15T17:10:17.988Z,15.10
2018-04-15T17:12:44.835Z,14.30
2018-04-15T17:15:10.923Z,11.67
2018-04-15T17:17:37.002Z,11.60
2018-04-15T17:20:03.138Z,8.83
2018-04-15T17:22:29.299Z,13.67
2018-04-15T17:24:55.378Z,9.40
2018-04-15T17:27:21.515Z,14.70
2018-04-15T17:29:47.615Z,7.77
2018-04-15T17:32:15.537Z,9.13
2018-04-15T17:34:43.428Z,10.73
2018-04-15T17:37:11.280Z,13.13
2018-04-15T17:39:39.168Z,15.43
2018-04-15T17:42:07.043Z,14.00
2018-04-15T17:44:34.969Z,11.67
2018-04-15T17:47:02.896Z,12.23
2018-04-15T17:49:30.840Z,21.70
2018-04-15T17:51:57.670Z,18.67
2018-04-15T17:54:23.776Z,20.27
2018-04-15T17:56:49.915Z,20.90
2018-04-15T17:59:16.006Z,66.00
2018-04-15T18:01:42.119Z,17.17
2018-04-15T18:04:08.259Z,23.80
2018-04-15T18:06:34.423Z,21.00
2018-04-15T18:09:00.532Z,27.60
2018-04-15T18:11:27.072Z,28.87
2018-04-15T18:13:53.308Z,20.47
2018-04-15T18:16:19.403Z,23.23
2018-04-15T18:18:46.254Z,24.03
2018-04-15T18:21:13.082Z,25.07
2018-04-15T18:23:39.169Z,27.20
2018-04-15T18:26:05.449Z,24.73
2018-04-15T18:28:31.573Z,27.73
2018-04-15T18:30:59.439Z,27.13
2018-04-15T18:33:25.551Z,37.50
2018-04-15T18:35:51.671Z,46.03
2018-04-15T18:38:19.580Z,52.03
2018-04-15T18:40:47.434Z,39.27
2018-04-15T18:43:14.662Z,36.87
2018-04-15T18:45:40.831Z,36.70
2018-04-15T18:48:06.986Z,39.17
2018-04-15T18:50:33.899Z,36.40
2018-04-15T18:53:00.236Z,44.30
2018-04-15T18:55:26.503Z,41.83
2018-04-15T18:57:52.721Z,36.57
2018-04-15T19:00:18.908Z,49.17
2018-04-15T19:02:45.820Z,86.00
2018-04-15T19:05:11.969Z,41.83
2018-04-15T19:07:38.167Z,42.93
2018-04-15T19:10:04.305Z,43.70
2018-04-15T19:12:30.421Z,38.87
2018-04-15T19:14:57.334Z,38.27
2018-04-15T19:17:23.537Z,55.73
2018-04-15T19:19:49.731Z,34.60
2018-04-15T19:22:15.889Z,65.00
2018-04-15T19:24:42.736Z,46.53
2018-04-15T19:27:08.835Z,58.37
2018-04-15T19:29:34.961Z,38.77
2018-04-15T19:32:01.076Z,30.13
2018-04-15T19:34:28.247Z,28.10
2018-04-15T19:36:56.095Z,51.80
2018-04-15T19:39:23.927Z,248.03
2018-04-15T19:41:50.052Z,66.07
2018-04-15T19:44:16.209Z,69.97
2018-04-15T19:46:42.366Z,41.50
2018-04-15T19:49:08.460Z,87.40
2018-04-15T19:51:34.551Z,29.03
2018-04-15T19:54:00.662Z,97.63
2018-04-15T19:56:26.774Z,46.40
2018-04-15T19:58:52.892Z,44.33
2018-04-15T20:01:19.713Z,85.17
2018-04-15T20:03:45.795Z,49.03
2018-04-15T20:06:11.931Z,63.37
2018-04-15T20:08:38.080Z,69.10
2018-04-15T20:11:04.296Z,27.63
2018-04-15T20:13:30.461Z,22.40
2018-04-15T20:15:56.746Z,31.23
2018-04-15T20:18:22.924Z,18.90
2018-04-15T20:20:49.099Z,33.87
2018-04-15T20:23:15.203Z,22.73
2018-04-15T20:25:42.080Z,20.77
2018-04-15T20:28:08.512Z,16.73
2018-04-15T20:30:35.688Z,34.73
2018-04-15T20:33:02.191Z,20.83
2018-04-15T20:35:28.323Z,20.53
2018-04-15T20:37:54.456Z,30.27
2018-04-15T20:40:20.660Z,21.13
2018-04-15T20:42:47.199Z,18.43
2018-04-15T20:45:13.459Z,18.90
2018-04-15T20:47:39.656Z,16.37
2018-04-15T20:50:05.790Z,13.73
2018-04-15T20:52:31.884Z,16.20
2018-04-15T20:54:58.023Z,19.00
2018-04-15T20:57:25.002Z,17.67
2018-04-15T20:59:51.139Z,16.70
2018-04-15T21:02:17.244Z,15.43
2018-04-15T21:04:43.389Z,16.37
2018-04-15T21:07:09.523Z,19.40
2018-04-15T21:09:35.648Z,22.40
2018-04-15T21:12:01.783Z,18.43
2018-04-15T21:14:27.927Z,22.17
2018-04-15T21:16:54.067Z,17.47
2018-04-15T21:19:20.192Z,19.00
2018-04-15T21:21:46.297Z,18.93
2018-04-15T21:24:12.515Z,20.53
2018-04-15T21:26:38.694Z,18.67
2018-04-15T21:29:05.585Z,24.70
2018-04-15T21:31:31.675Z,22.93
2018-04-15T21:33:59.580Z,25.10
2018-04-15T21:36:25.741Z,23.30
2018-04-15T21:38:51.876Z,24.47
2018-04-15T21:41:18.017Z,21.53
2018-04-15T21:43:44.165Z,26.33
2018-04-15T21:46:10.426Z,22.37
2018-04-15T21:48:36.576Z,23.80
2018-04-15T21:51:03.650Z,22.63
2018-04-15T21:53:30.534Z,25.50
2018-04-15T21:55:56.695Z,24.10
2018-04-15T21:58:22.808Z,24.40
2018-04-15T22:00:48.960Z,25.80
2018-04-15T22:03:15.101Z,24.57
2018-04-15T22:05:41.289Z,23.90
2018-04-15T22:08:07.413Z,23.57
2018-04-15T22:10:33.520Z,25.27
2018-04-15T22:13:10.676Z,24.03
2018-04-15T22:15:37.525Z,23.70
2018-04-15T22:18:03.660Z,27.50
2018-04-15T22:20:30.023Z,26.50
2018-04-15T22:22:57.272Z,28.53
2018-04-15T22:25:23.808Z,29.43
2018-04-15T22:27:50.974Z,26.17
2018-04-15T22:30:18.195Z,24.10
2018-04-15T22:32:45.185Z,26.43
2018-04-15T22:35:12.324Z,25.17
2018-04-15T22:37:40.731Z,26.00
2018-04-15T22:40:06.843Z,30.63
2018-04-15T22:42:33.253Z,25.80
2018-04-15T22:44:59.399Z,28.60
2018-04-15T22:47:27.669Z,25.40
2018-04-15T22:49:59.747Z,28.43
2018-04-15T22:52:26.061Z,30.97
2018-04-15T22:55:00.659Z,32.83
2018-04-15T22:57:26.810Z,37.93
2018-04-15T22:59:53.034Z,31.10
2018-04-15T23:02:19.156Z,31.23
2018-04-15T23:04:45.411Z,26.90
2018-04-15T23:07:11.533Z,28.13
2018-04-15T23:09:37.870Z,28.97
2018-04-15T23:12:04.003Z,31.17
2018-04-15T23:14:31.026Z,30.53
2018-04-15T23:16:58.119Z,35.57
2018-04-15T23:19:24.236Z,34.30
2018-04-15T23:21:50.883Z,32.83
2018-04-15T23:24:17.895Z,36.37
2018-04-15T23:26:44.148Z,35.63
2018-04-15T23:29:10.395Z,31.70
2018-04-15T23:31:36.501Z,46.93
2018-04-15T23:34:02.641Z,40.60
2018-04-15T23:36:28.890Z,36.30
2018-04-15T23:38:55.064Z,32.73
2018-04-15T23:41:21.275Z,36.47
2018-04-15T23:43:48.179Z,40.83
2018-04-15T23:46:15.133Z,37.60
2018-04-15T23:48:41.403Z,39.40
2018-04-15T23:51:07.614Z,39.83
2018-04-15T23:53:33.839Z,39.80
2018-04-15T23:56:00.133Z,37.83
2018-04-15T23:58:26.289Z,41.10
